Time;durP1;ratioP1;P1;durP2;ratioP2;P2;SDS_P1;SDS_P2;PMS_P1;PMS_P2;Temp;Humidity;BMP_temperature;BMP_pressure;BME280_temperature;BME280_humidity;BME280_pressure;Samples;Min_cycle;Max_cycle;Signal;HPM_P1;HPM_P2
2021/12/21 00:01:32;;;;;;;9.10;3.15;;;-1.50;99.90;;;;;;7258478;32;20130;-78
2021/12/21 00:05:35;;;;;;;11.20;3.25;;;-1.50;99.90;;;;;;7258277;32;20127;-78
2021/12/21 00:09:37;;;;;;;10.05;3.40;;;-1.50;99.90;;;;;;7263642;32;20101;-79
2021/12/21 00:17:59;;;;;;;7.22;2.80;;;-1.50;99.90;;;;;;7247498;32;20125;-79
2021/12/21 00:22:07;;;;;;;5.70;2.62;;;-1.50;99.90;;;;;;7264636;32;20148;-79
2021/12/21 00:26:13;;;;;;;6.82;2.35;;;-1.60;99.90;;;;;;7268531;32;20176;-79
2021/12/21 00:30:15;;;;;;;5.57;2.30;;;-1.60;99.90;;;;;;7243035;32;20124;-78
2021/12/21 00:34:17;;;;;;;7.90;2.45;;;-1.60;99.90;;;;;;7251100;32;20131;-79
2021/12/21 00:38:19;;;;;;;6.37;2.05;;;-1.60;99.90;;;;;;7230278;32;20128;-79
2021/12/21 00:42:21;;;;;;;5.03;2.10;;;-1.60;99.90;;;;;;7246622;32;20158;-79
2021/12/21 00:46:23;;;;;;;4.72;2.20;;;-1.70;99.90;;;;;;7263402;32;20163;-78
2021/12/21 00:50:24;;;;;;;5.28;2.10;;;-1.70;99.90;;;;;;7261700;32;20104;-78
2021/12/21 00:54:26;;;;;;;5.62;2.12;;;-1.70;99.90;;;;;;7262973;32;20244;-78
2021/12/21 00:58:28;;;;;;;6.03;2.40;;;-1.70;99.90;;;;;;7248391;32;20132;-78
2021/12/21 01:02:30;;;;;;;5.18;1.95;;;-1.80;99.90;;;;;;7241104;32;20393;-78
2021/12/21 01:15:19;;;;;;;2.90;1.50;;;-1.70;99.90;;;;;;7262530;32;20189;-79
2021/12/21 01:19:30;;;;;;;5.57;2.25;;;-1.80;99.90;;;;;;7248197;32;20176;-80
2021/12/21 01:27:53;;;;;;;6.22;1.75;;;-1.80;99.90;;;;;;7253174;32;20204;-79
2021/12/21 01:36:38;;;;;;;5.85;2.03;;;-1.90;99.90;;;;;;7267585;32;20096;-79
2021/12/21 01:49:40;;;;;;;4.72;2.05;;;-2.10;99.90;;;;;;7261052;32;20132;-79
2021/12/21 01:53:43;;;;;;;7.25;2.55;;;-2.10;99.90;;;;;;7257722;32;20168;-79
2021/12/21 01:57:45;;;;;;;8.10;2.15;;;-2.10;99.90;;;;;;7253068;32;20738;-78
2021/12/21 02:01:47;;;;;;;4.15;1.85;;;-2.20;99.90;;;;;;7262213;32;20591;-78
2021/12/21 02:05:49;;;;;;;9.88;1.92;;;-2.20;99.90;;;;;;7249313;32;20216;-78
2021/12/21 02:09:51;;;;;;;5.18;2.00;;;-2.10;99.90;;;;;;7262199;32;20151;-78
2021/12/21 02:13:53;;;;;;;6.45;1.77;;;-2.20;99.90;;;;;;7259018;32;20104;-79
2021/12/21 02:18:32;;;;;;;4.70;2.08;;;-2.30;99.90;;;;;;7260354;32;20125;-79
2021/12/21 02:22:24;;;;;;;4.55;1.87;;;-2.20;99.90;;;;;;7258380;32;20108;-79
2021/12/21 02:26:49;;;;;;;4.03;1.85;;;-2.30;99.90;;;;;;7268550;32;20146;-80
2021/12/21 02:30:54;;;;;;;7.40;2.35;;;-2.30;99.90;;;;;;7264520;32;20531;-79
2021/12/21 02:34:55;;;;;;;10.98;2.85;;;-2.30;99.90;;;;;;7252571;32;20175;-80
2021/12/21 02:39:12;;;;;;;6.62;2.10;;;-2.30;99.90;;;;;;7264854;32;20222;-79
2021/12/21 02:43:14;;;;;;;4.30;1.90;;;-2.30;99.90;;;;;;7264531;32;20101;-80
2021/12/21 02:47:16;;;;;;;6.28;2.22;;;-2.40;99.90;;;;;;7257589;32;20128;-80
2021/12/21 02:51:18;;;;;;;7.97;2.53;;;-2.40;99.90;;;;;;7262036;32;20675;-79
2021/12/21 02:55:43;;;;;;;10.40;2.40;;;-2.40;99.90;;;;;;7245728;32;20113;-79
2021/12/21 02:59:46;;;;;;;9.15;1.90;;;-2.50;99.90;;;;;;7265165;32;20134;-79
2021/12/21 03:04:02;;;;;;;4.97;2.10;;;-2.50;99.90;;;;;;7271899;32;20104;-79
2021/12/21 03:08:21;;;;;;;6.37;2.00;;;-2.50;99.90;;;;;;7256378;32;20228;-79
2021/12/21 03:16:27;;;;;;;6.20;2.60;;;-2.60;99.90;;;;;;7251910;32;20159;-79
2021/12/21 03:20:29;;;;;;;8.32;3.40;;;-2.60;99.90;;;;;;7265346;32;20139;-79
2021/12/21 03:24:32;;;;;;;9.48;2.75;;;-2.60;99.90;;;;;;7267974;32;20603;-79
2021/12/21 03:28:36;;;;;;;7.90;2.42;;;-2.70;99.90;;;;;;7249393;32;20211;-79
2021/12/21 03:32:38;;;;;;;12.25;2.87;;;-2.70;99.90;;;;;;7245357;32;20207;-80
2021/12/21 03:36:41;;;;;;;6.60;2.30;;;-2.70;99.90;;;;;;7253435;32;20127;-79
2021/12/21 03:40:44;;;;;;;8.20;2.10;;;-2.70;99.90;;;;;;7252827;32;20173;-79
2021/12/21 03:44:47;;;;;;;9.20;2.58;;;-2.70;99.90;;;;;;7257662;32;20226;-80
2021/12/21 03:48:49;;;;;;;4.20;1.62;;;-2.70;99.90;;;;;;7245199;32;20158;-79
2021/12/21 03:52:51;;;;;;;7.15;2.10;;;-2.70;99.90;;;;;;7244777;32;20174;-79
2021/12/21 03:56:54;;;;;;;6.32;2.17;;;-2.80;99.90;;;;;;7269987;32;20196;-79
2021/12/21 04:00:56;;;;;;;7.20;2.37;;;-2.80;99.90;;;;;;7248754;32;20140;-80
2021/12/21 04:04:59;;;;;;;5.97;2.15;;;-2.80;99.90;;;;;;7269228;32;20270;-79
2021/12/21 04:09:06;;;;;;;5.45;1.92;;;-2.80;99.90;;;;;;7256630;32;20158;-80
2021/12/21 04:13:10;;;;;;;5.78;1.80;;;-2.80;99.90;;;;;;7262335;32;20239;-80
2021/12/21 04:17:21;;;;;;;4.90;2.55;;;-2.80;99.90;;;;;;7257846;32;20108;-78
2021/12/21 04:21:24;;;;;;;5.47;1.67;;;-3.00;99.90;;;;;;7246795;32;20573;-78
2021/12/21 04:25:26;;;;;;;4.90;1.87;;;-3.00;99.90;;;;;;7252318;32;20191;-79
2021/12/21 04:29:28;;;;;;;5.62;1.83;;;-2.90;99.90;;;;;;7272879;32;20100;-78
2021/12/21 04:33:31;;;;;;;3.70;1.75;;;-3.00;99.90;;;;;;7261735;32;20143;-78
2021/12/21 04:37:40;;;;;;;6.00;1.95;;;-3.10;99.90;;;;;;7258535;32;20109;-79
2021/12/21 04:41:44;;;;;;;3.80;1.90;;;-3.00;99.90;;;;;;7239423;32;20125;-79
2021/12/21 04:46:04;;;;;;;4.22;1.40;;;-3.10;99.90;;;;;;7240023;32;20222;-79
2021/12/21 04:50:06;;;;;;;6.35;1.45;;;-3.00;99.90;;;;;;7253234;32;20150;-79
2021/12/21 04:54:08;;;;;;;3.78;1.70;;;-3.00;99.90;;;;;;7264532;32;20195;-79
2021/12/21 04:58:19;;;;;;;7.93;1.90;;;-3.00;99.90;;;;;;7260546;32;20215;-79
2021/12/21 05:02:23;;;;;;;5.85;1.98;;;-2.90;99.90;;;;;;7268439;32;20200;-78
2021/12/21 05:06:26;;;;;;;7.53;1.65;;;-3.00;99.90;;;;;;7263556;32;20131;-78
2021/12/21 05:10:28;;;;;;;8.55;1.83;;;-3.00;99.90;;;;;;7253913;32;20274;-79
2021/12/21 05:14:30;;;;;;;4.90;1.60;;;-3.10;99.90;;;;;;7253205;32;20109;-78
2021/12/21 05:18:34;;;;;;;4.50;1.67;;;-3.00;99.90;;;;;;7242578;32;20505;-78
2021/12/21 05:22:36;;;;;;;5.00;1.70;;;-3.00;99.90;;;;;;7266798;32;20088;-80
2021/12/21 05:26:39;;;;;;;2.78;1.40;;;-3.00;99.90;;;;;;7267960;32;20105;-79
2021/12/21 05:30:42;;;;;;;3.08;1.40;;;-3.20;99.90;;;;;;7250439;32;20109;-79
2021/12/21 05:34:45;;;;;;;4.12;1.40;;;-3.30;99.90;;;;;;7262726;32;20128;-80
2021/12/21 05:38:54;;;;;;;4.93;1.58;;;-3.20;99.90;;;;;;7246467;32;20151;-80
2021/12/21 05:42:57;;;;;;;4.28;1.55;;;-3.30;99.90;;;;;;7232644;32;20579;-78
2021/12/21 05:46:59;;;;;;;6.37;1.37;;;-3.30;99.90;;;;;;7250269;32;20576;-81
2021/12/21 05:51:01;;;;;;;2.95;1.60;;;-3.20;99.90;;;;;;7222074;32;20652;-78
2021/12/21 05:55:05;;;;;;;3.47;1.67;;;-3.30;99.90;;;;;;7236595;32;20125;-77
2021/12/21 05:59:08;;;;;;;13.88;5.22;;;-3.30;99.90;;;;;;7266801;32;20546;-80
2021/12/21 06:03:10;;;;;;;4.62;1.70;;;-3.30;99.90;;;;;;7270592;32;20167;-80
2021/12/21 06:07:13;;;;;;;6.53;1.75;;;-3.20;99.90;;;;;;7275928;32;20080;-78
2021/12/21 06:11:15;;;;;;;2.85;1.42;;;-3.30;99.90;;;;;;7289466;32;20100;-78
2021/12/21 06:15:31;;;;;;;4.45;1.70;;;-3.30;99.90;;;;;;7306581;32;20155;-78
2021/12/21 06:28:16;;;;;;;8.35;4.70;;;-3.30;99.90;;;;;;7271177;32;20077;-78
2021/12/21 06:32:19;;;;;;;12.27;7.20;;;-3.30;99.90;;;;;;7286476;32;20172;-79
2021/12/21 06:36:22;;;;;;;14.02;8.07;;;-3.30;99.90;;;;;;7285867;32;20121;-78
2021/12/21 06:40:25;;;;;;;9.73;6.30;;;-3.30;99.90;;;;;;7257417;32;20150;-80
2021/12/21 06:44:27;;;;;;;9.52;4.72;;;-3.30;99.90;;;;;;7262830;32;20215;-80
2021/12/21 06:52:51;;;;;;;11.65;5.28;;;-3.40;99.90;;;;;;7244510;32;20116;-79
2021/12/21 06:56:53;;;;;;;14.23;5.57;;;-3.40;99.90;;;;;;7238067;32;20206;-77
2021/12/21 07:01:05;;;;;;;4.57;2.85;;;-3.40;99.90;;;;;;7239793;32;20189;-77
2021/12/21 07:05:12;;;;;;;3.55;2.12;;;-3.40;99.90;;;;;;7255893;32;20097;-77
2021/12/21 07:09:21;;;;;;;5.72;2.08;;;-3.50;99.90;;;;;;7253581;32;20178;-78
2021/12/21 07:18:12;;;;;;;5.35;1.65;;;-3.60;99.90;;;;;;7265306;32;20116;-80
2021/12/21 07:22:14;;;;;;;4.35;1.67;;;-3.60;99.90;;;;;;7259457;32;20204;-80
2021/12/21 07:26:17;;;;;;;6.68;1.90;;;-3.60;99.90;;;;;;7251535;32;20140;-78
2021/12/21 07:30:19;;;;;;;4.93;2.53;;;-3.50;99.90;;;;;;7255826;32;20301;-80
2021/12/21 07:34:21;;;;;;;4.70;2.15;;;-3.60;99.90;;;;;;7270374;32;20513;-80
2021/12/21 07:38:25;;;;;;;4.93;2.30;;;-3.60;99.90;;;;;;7269238;32;20112;-79
2021/12/21 07:42:27;;;;;;;5.78;1.80;;;-3.50;99.90;;;;;;7256450;32;20113;-80
2021/12/21 07:46:29;;;;;;;6.00;2.10;;;-3.50;99.90;;;;;;7280641;32;20225;-79
2021/12/21 07:50:31;;;;;;;4.93;2.37;;;-3.40;99.90;;;;;;7271634;32;20097;-79
2021/12/21 07:54:34;;;;;;;4.90;1.98;;;-3.50;99.90;;;;;;7267946;32;20500;-79
2021/12/21 07:58:36;;;;;;;5.85;3.35;;;-3.50;99.90;;;;;;7269680;32;20120;-80
2021/12/21 08:02:39;;;;;;;13.82;9.10;;;-3.40;99.90;;;;;;7256225;32;20167;-80
2021/12/21 08:06:44;;;;;;;13.82;5.28;;;-3.40;99.90;;;;;;7266708;32;20405;-80
2021/12/21 08:10:52;;;;;;;4.78;2.62;;;-3.40;99.90;;;;;;7256491;32;20125;-80
2021/12/21 08:14:53;;;;;;;8.50;4.18;;;-3.40;99.90;;;;;;7254925;32;20096;-78
2021/12/21 08:18:55;;;;;;;5.35;2.90;;;-3.40;99.90;;;;;;7256159;32;20117;-79
2021/12/21 08:22:57;;;;;;;8.02;3.70;;;-3.40;99.90;;;;;;7256367;32;20816;-79
2021/12/21 08:32:03;;;;;;;13.93;9.02;;;-3.30;99.90;;;;;;7262328;32;20124;-80
2021/12/21 08:36:06;;;;;;;16.77;7.70;;;-3.20;99.90;;;;;;7248681;32;20105;-78
2021/12/21 08:40:10;;;;;;;8.93;5.68;;;-3.20;99.90;;;;;;7252073;32;20170;-78
2021/12/21 08:44:16;;;;;;;10.10;5.05;;;-3.10;99.90;;;;;;7238156;32;20222;-78
2021/12/21 08:48:19;;;;;;;17.20;11.00;;;-3.00;99.90;;;;;;7265250;32;20680;-78
2021/12/21 08:52:21;;;;;;;16.25;7.65;;;-3.00;99.90;;;;;;7249671;32;20138;-77
2021/12/21 08:56:23;;;;;;;9.13;4.50;;;-2.90;99.90;;;;;;7254956;32;20112;-78
2021/12/21 09:00:26;;;;;;;12.93;6.35;;;-2.90;99.90;;;;;;7274108;32;20131;-79
2021/12/21 09:04:28;;;;;;;21.33;9.82;;;-2.80;99.90;;;;;;7277391;32;20135;-78
2021/12/21 09:08:29;;;;;;;18.58;9.00;;;-2.80;99.90;;;;;;7271614;32;20195;-80
2021/12/21 09:12:31;;;;;;;25.15;10.65;;;-2.70;99.90;;;;;;7256428;32;20144;-79
2021/12/21 09:16:33;;;;;;;18.12;9.18;;;-2.60;99.90;;;;;;7253323;32;20190;-79
2021/12/21 09:20:38;;;;;;;23.00;9.70;;;-2.50;99.90;;;;;;7253787;32;20100;-79
2021/12/21 09:24:40;;;;;;;10.63;5.40;;;-2.40;99.90;;;;;;7231396;32;20269;-78
2021/12/21 09:28:44;;;;;;;9.48;5.10;;;-2.40;99.90;;;;;;7252489;32;20199;-79
2021/12/21 09:32:46;;;;;;;10.98;4.53;;;-2.30;99.90;;;;;;7255084;32;20255;-79
2021/12/21 09:36:48;;;;;;;10.60;4.22;;;-2.30;99.90;;;;;;7256691;32;20179;-79
2021/12/21 09:40:51;;;;;;;23.87;9.50;;;-2.20;99.90;;;;;;7264897;32;20510;-79
2021/12/21 09:44:55;;;;;;;17.87;6.78;;;-2.10;99.90;;;;;;7260085;32;20100;-78
2021/12/21 09:48:57;;;;;;;11.20;6.60;;;-2.00;99.90;;;;;;7235355;32;20125;-79
2021/12/21 09:52:59;;;;;;;12.25;4.78;;;-2.00;99.90;;;;;;7259080;32;20537;-79
2021/12/21 09:57:02;;;;;;;6.75;3.80;;;-1.90;99.90;;;;;;7260651;32;20170;-78
2021/12/21 10:01:04;;;;;;;11.05;3.92;;;-1.80;99.90;;;;;;7260660;32;20096;-79
2021/12/21 10:05:10;;;;;;;10.52;4.40;;;-1.80;99.90;;;;;;7249295;32;20146;-80
2021/12/21 10:09:13;;;;;;;9.00;4.28;;;-1.60;99.90;;;;;;7246470;32;20223;-79
2021/12/21 10:13:36;;;;;;;9.23;3.55;;;-1.50;99.90;;;;;;7247104;32;20109;-79
2021/12/21 10:17:48;;;;;;;7.70;3.62;;;-1.40;99.90;;;;;;7256796;32;20174;-79
2021/12/21 10:21:51;;;;;;;11.10;4.20;;;-1.30;99.90;;;;;;7239484;32;20241;-79
2021/12/21 10:26:04;;;;;;;7.43;4.30;;;-1.20;99.90;;;;;;7260024;32;20104;-79
2021/12/21 10:30:09;;;;;;;8.15;4.40;;;-1.20;99.90;;;;;;7244287;32;20117;-79
2021/12/21 10:34:13;;;;;;;6.93;3.45;;;-1.00;99.90;;;;;;7248787;32;20214;-80
2021/12/21 10:38:34;;;;;;;7.45;3.15;;;-0.90;99.90;;;;;;7242518;32;20108;-80
2021/12/21 10:42:45;;;;;;;7.00;3.37;;;-0.80;99.90;;;;;;7255402;32;20302;-80
2021/12/21 10:46:51;;;;;;;6.68;2.65;;;-0.70;99.90;;;;;;7246470;32;20112;-79
2021/12/21 10:51:14;;;;;;;6.53;2.70;;;-0.60;99.90;;;;;;7241244;32;20190;-79
2021/12/21 10:55:16;;;;;;;4.12;2.22;;;-0.40;99.90;;;;;;7245543;32;20105;-80
2021/12/21 10:59:18;;;;;;;5.87;3.08;;;-0.30;99.90;;;;;;7245922;32;20122;-80
2021/12/21 11:03:39;;;;;;;10.48;2.22;;;-0.20;99.90;;;;;;7239306;32;20281;-79
2021/12/21 11:07:55;;;;;;;7.93;2.58;;;-0.10;99.90;;;;;;7257203;32;20100;-79
2021/12/21 11:11:58;;;;;;;3.92;2.30;;;0.10;99.90;;;;;;7246950;32;20263;-79
2021/12/21 11:16:04;;;;;;;9.93;4.05;;;0.20;99.90;;;;;;7224801;32;20175;-79
2021/12/21 11:20:07;;;;;;;8.63;3.20;;;0.30;99.90;;;;;;7242098;32;20138;-79
2021/12/21 11:34:20;;;;;;;12.02;3.70;;;0.70;99.90;;;;;;7230494;32;20105;-78
2021/12/21 11:38:22;;;;;;;5.53;2.87;;;0.90;99.90;;;;;;7239174;32;20117;-78
2021/12/21 11:42:35;;;;;;;8.70;3.85;;;1.00;99.90;;;;;;7239134;32;20162;-78
2021/12/21 11:46:59;;;;;;;10.00;3.37;;;1.10;99.90;;;;;;7242038;32;20653;-79
2021/12/21 11:51:08;;;;;;;9.88;2.80;;;1.20;99.90;;;;;;7238250;32;20207;-78
2021/12/21 11:55:10;;;;;;;10.02;2.70;;;1.30;99.90;;;;;;7254744;32;20100;-76
2021/12/21 11:59:19;;;;;;;6.40;2.97;;;1.40;99.90;;;;;;7239380;32;20575;-78
2021/12/21 12:03:24;;;;;;;7.62;2.80;;;1.50;99.90;;;;;;7255907;32;20639;-78
2021/12/21 12:07:26;;;;;;;7.40;2.87;;;1.60;99.90;;;;;;7246799;32;20101;-78
2021/12/21 12:11:39;;;;;;;9.05;3.00;;;1.80;99.90;;;;;;7260099;32;20308;-78
2021/12/21 12:15:44;;;;;;;7.78;2.62;;;2.00;99.90;;;;;;7242646;32;20239;-78
2021/12/21 12:19:55;;;;;;;6.75;2.60;;;1.90;99.90;;;;;;7261501;32;20189;-78
2021/12/21 12:24:02;;;;;;;8.45;3.30;;;2.00;99.90;;;;;;7246921;32;20203;-79
2021/12/21 12:28:05;;;;;;;9.43;2.90;;;2.00;99.90;;;;;;7245897;32;20188;-79
2021/12/21 12:32:07;;;;;;;6.40;2.60;;;2.10;99.90;;;;;;7247422;32;20171;-79
2021/12/21 12:36:09;;;;;;;5.65;2.65;;;2.00;99.90;;;;;;7247317;32;20199;-79
2021/12/21 12:40:14;;;;;;;11.10;3.00;;;2.10;99.90;;;;;;7257615;32;20195;-79
2021/12/21 12:44:24;;;;;;;8.02;3.10;;;2.10;99.90;;;;;;7247379;32;20116;-79
2021/12/21 12:48:32;;;;;;;10.18;3.00;;;2.20;99.90;;;;;;7246608;32;20124;-77
2021/12/21 12:52:34;;;;;;;6.90;2.75;;;2.30;99.90;;;;;;7243749;32;20292;-78
2021/12/21 12:56:39;;;;;;;9.52;2.70;;;2.30;99.90;;;;;;7259240;32;20195;-79
2021/12/21 13:00:44;;;;;;;7.70;3.00;;;2.30;99.90;;;;;;7267519;32;20195;-79
2021/12/21 13:04:46;;;;;;;6.30;2.67;;;2.40;99.90;;;;;;7256760;32;20132;-78
2021/12/21 13:08:48;;;;;;;7.18;2.47;;;2.40;99.90;;;;;;7245835;32;20120;-79
2021/12/21 13:12:57;;;;;;;13.65;6.55;;;2.40;99.90;;;;;;7258345;32;20181;-79
2021/12/21 13:16:59;;;;;;;13.23;5.85;;;2.60;99.90;;;;;;7249100;32;20142;-79
2021/12/21 13:21:01;;;;;;;8.30;3.80;;;2.50;99.90;;;;;;7234416;32;20108;-79
2021/12/21 13:25:03;;;;;;;8.00;3.72;;;2.50;99.90;;;;;;7247239;32;20529;-83
2021/12/21 13:29:09;;;;;;;7.22;2.95;;;2.50;99.90;;;;;;7236425;32;20732;-82
2021/12/21 13:33:23;;;;;;;12.10;2.97;;;2.50;99.90;;;;;;7238273;32;20265;-83
2021/12/21 13:37:27;;;;;;;7.03;2.83;;;2.70;99.90;;;;;;7255624;32;20134;-83
2021/12/21 13:41:29;;;;;;;26.65;14.05;;;3.00;99.90;;;;;;7247231;32;20127;-83
2021/12/21 13:45:31;;;;;;;10.18;4.47;;;3.10;99.90;;;;;;7266698;32;20225;-83
2021/12/21 13:49:33;;;;;;;8.95;3.20;;;3.00;99.90;;;;;;7247680;32;20130;-83
2021/12/21 13:53:41;;;;;;;6.78;3.15;;;2.90;99.90;;;;;;7245826;32;20101;-83
2021/12/21 13:57:43;;;;;;;6.00;2.78;;;2.70;99.90;;;;;;7235490;32;20161;-82
2021/12/21 14:01:47;;;;;;;5.93;2.62;;;2.70;99.90;;;;;;7251809;32;20158;-82
2021/12/21 14:05:56;;;;;;;9.10;2.78;;;2.60;99.90;;;;;;7239008;32;20675;-81
2021/12/21 14:10:19;;;;;;;5.07;2.08;;;2.60;99.90;;;;;;7233444;32;20467;-82
2021/12/21 14:14:22;;;;;;;7.62;2.67;;;2.80;99.90;;;;;;7245027;32;20169;-83
2021/12/21 14:18:29;;;;;;;5.90;2.67;;;2.90;99.90;;;;;;7232509;32;20580;-83
2021/12/21 14:22:32;;;;;;;9.35;2.95;;;2.80;99.90;;;;;;7268438;32;20255;-83
2021/12/21 14:26:41;;;;;;;7.00;2.45;;;2.60;99.90;;;;;;7246473;32;20191;-83
2021/12/21 14:30:43;;;;;;;6.95;2.87;;;2.40;99.90;;;;;;7249100;32;20145;-82
2021/12/21 14:34:52;;;;;;;7.62;2.83;;;2.30;99.90;;;;;;7260112;32;20128;-83
2021/12/21 14:39:05;;;;;;;8.13;3.12;;;2.10;99.90;;;;;;7263057;32;20108;-82
2021/12/21 14:43:20;;;;;;;6.40;3.12;;;1.90;99.90;;;;;;7259918;32;20520;-82
2021/12/21 14:47:26;;;;;;;4.70;2.62;;;1.70;99.90;;;;;;7236219;32;20198;-81
2021/12/21 14:51:33;;;;;;;5.93;2.70;;;1.60;99.90;;;;;;7238804;32;20714;-82
2021/12/21 14:55:35;;;;;;;9.05;3.17;;;1.40;99.90;;;;;;7229931;32;20152;-84
2021/12/21 14:59:38;;;;;;;7.55;3.42;;;1.10;99.90;;;;;;7239489;32;20136;-81
2021/12/21 15:03:40;;;;;;;6.75;3.37;;;1.00;99.90;;;;;;7236210;32;20152;-83
2021/12/21 15:07:43;;;;;;;10.55;4.47;;;0.90;99.90;;;;;;7246286;32;20376;-84
2021/12/21 15:11:55;;;;;;;9.77;4.47;;;0.80;99.90;;;;;;7248343;32;20172;-79
2021/12/21 15:15:57;;;;;;;8.93;5.25;;;0.70;99.90;;;;;;7260650;32;20140;-79
2021/12/21 15:19:59;;;;;;;7.70;5.32;;;0.60;99.90;;;;;;7232115;32;20522;-80
2021/12/21 15:24:02;;;;;;;7.60;4.93;;;0.40;99.90;;;;;;7234256;32;20576;-81
2021/12/21 15:28:04;;;;;;;10.05;6.35;;;0.30;99.90;;;;;;7258010;32;20132;-81
2021/12/21 15:32:13;;;;;;;13.75;8.32;;;0.20;99.90;;;;;;7241374;32;20191;-81
2021/12/21 15:36:16;;;;;;;23.33;13.18;;;0.10;99.90;;;;;;7243129;32;20238;-80
2021/12/21 15:40:20;;;;;;;9.55;4.55;;;0.00;99.90;;;;;;7258631;32;20195;-81
2021/12/21 15:44:28;;;;;;;7.47;3.37;;;-0.10;99.90;;;;;;7246346;32;20065;-78
2021/12/21 15:48:32;;;;;;;8.15;3.58;;;-0.20;99.90;;;;;;7261664;32;20144;-79
2021/12/21 15:52:36;;;;;;;8.13;3.05;;;-0.20;99.90;;;;;;7291335;32;20143;-80
2021/12/21 15:56:39;;;;;;;8.15;3.42;;;-0.20;99.90;;;;;;7274226;32;20097;-80
2021/12/21 16:00:41;;;;;;;6.97;3.10;;;-0.40;99.90;;;;;;7273244;32;20247;-78
2021/12/21 16:04:48;;;;;;;7.00;3.33;;;-0.40;99.90;;;;;;7275495;32;20166;-80
2021/12/21 16:08:50;;;;;;;10.38;3.95;;;-0.50;99.90;;;;;;7280798;32;20597;-81
2021/12/21 16:12:52;;;;;;;7.10;4.12;;;-0.60;99.90;;;;;;7279159;32;20197;-81
2021/12/21 16:16:55;;;;;;;10.23;4.40;;;-0.60;99.90;;;;;;7265504;32;20138;-84
2021/12/21 16:20:58;;;;;;;8.23;4.45;;;-0.60;99.90;;;;;;7281788;32;20120;-83
2021/12/21 16:25:20;;;;;;;14.35;5.30;;;-0.70;99.90;;;;;;7264342;32;20104;-83
2021/12/21 16:29:22;;;;;;;10.15;4.72;;;-0.80;99.90;;;;;;7273206;32;20263;-81
2021/12/21 16:33:26;;;;;;;8.70;4.45;;;-0.80;99.90;;;;;;7267206;32;20163;-81
2021/12/21 16:37:28;;;;;;;7.78;4.53;;;-0.80;99.90;;;;;;7279124;32;20169;-82
2021/12/21 16:41:30;;;;;;;7.93;4.50;;;-0.90;99.90;;;;;;7270679;32;20170;-82
2021/12/21 16:45:44;;;;;;;8.70;4.20;;;-0.80;99.90;;;;;;7279460;32;20241;-83
2021/12/21 16:49:46;;;;;;;10.98;5.10;;;-0.90;99.90;;;;;;7271808;32;20105;-83
2021/12/21 16:53:51;;;;;;;8.07;4.50;;;-0.90;99.90;;;;;;7268086;32;20581;-83
2021/12/21 16:57:54;;;;;;;9.68;4.78;;;-1.00;99.90;;;;;;7267187;32;20249;-80
2021/12/21 17:01:56;;;;;;;12.25;5.47;;;-0.90;99.90;;;;;;7278148;32;20053;-83
2021/12/21 17:05:59;;;;;;;9.05;4.37;;;-1.00;99.90;;;;;;7249836;32;20394;-80
2021/12/21 17:10:05;;;;;;;10.30;4.68;;;-1.10;99.90;;;;;;7281164;32;20127;-80
2021/12/21 17:14:07;;;;;;;7.37;4.40;;;-1.20;99.90;;;;;;7268745;32;20461;-79
2021/12/21 17:18:10;;;;;;;11.32;5.30;;;-1.20;99.90;;;;;;7286826;32;20120;-79
2021/12/21 17:22:12;;;;;;;9.65;5.55;;;-1.20;99.90;;;;;;7276280;32;20552;-80
2021/12/21 17:26:14;;;;;;;9.80;4.60;;;-1.10;99.90;;;;;;7279807;32;20158;-81
2021/12/21 17:30:16;;;;;;;8.45;4.50;;;-1.30;99.90;;;;;;7282687;32;20108;-81
2021/12/21 17:34:18;;;;;;;24.25;12.93;;;-1.20;99.90;;;;;;7259242;32;20210;-80
2021/12/21 17:38:21;;;;;;;16.67;9.00;;;-1.30;99.90;;;;;;7264984;32;20168;-80
2021/12/21 17:42:23;;;;;;;16.27;7.85;;;-1.30;99.90;;;;;;7248197;32;20211;-80
2021/12/21 17:46:25;;;;;;;16.42;7.43;;;-1.30;99.90;;;;;;7264640;32;20147;-80
2021/12/21 17:50:27;;;;;;;12.57;6.90;;;-1.30;99.90;;;;;;7251849;32;20128;-80
2021/12/21 17:54:30;;;;;;;13.90;6.15;;;-1.40;99.90;;;;;;7241161;32;20105;-79
2021/12/21 17:58:32;;;;;;;13.80;5.50;;;-1.40;99.90;;;;;;7238058;32;20785;-79
2021/12/21 18:02:33;;;;;;;13.02;6.70;;;-1.50;99.90;;;;;;7269652;32;20436;-79
2021/12/21 18:06:35;;;;;;;9.90;5.95;;;-1.50;99.90;;;;;;7249356;32;20109;-78
2021/12/21 18:10:42;;;;;;;12.18;6.68;;;-1.60;99.90;;;;;;7243103;32;20672;-80
2021/12/21 18:14:44;;;;;;;11.48;6.55;;;-1.60;99.90;;;;;;7235208;32;20254;-82
2021/12/21 18:18:47;;;;;;;14.38;6.22;;;-1.60;99.90;;;;;;7234420;32;20131;-79
2021/12/21 18:22:49;;;;;;;16.27;5.95;;;-1.60;99.90;;;;;;7246236;32;20265;-81
2021/12/21 18:26:51;;;;;;;11.95;6.78;;;-1.70;99.90;;;;;;7249291;32;20120;-78
2021/12/21 18:30:53;;;;;;;20.90;11.15;;;-1.70;99.90;;;;;;7231032;32;20259;-79
2021/12/21 18:34:55;;;;;;;16.83;9.30;;;-1.70;99.90;;;;;;7253682;32;20206;-79
2021/12/21 18:38:58;;;;;;;10.23;6.43;;;-1.70;99.90;;;;;;7248503;32;20219;-78
2021/12/21 18:43:04;;;;;;;12.20;6.07;;;-1.80;99.90;;;;;;7247168;32;20242;-79
2021/12/21 18:47:08;;;;;;;11.43;6.55;;;-1.80;99.90;;;;;;7222104;32;20199;-80
2021/12/21 18:51:10;;;;;;;15.65;7.03;;;-1.80;99.90;;;;;;7258983;32;20134;-79
2021/12/21 18:55:13;;;;;;;11.35;6.43;;;-1.90;99.90;;;;;;7243821;32;20603;-80
2021/12/21 18:59:35;;;;;;;10.50;6.25;;;-1.90;99.90;;;;;;7232482;32;20183;-79
2021/12/21 19:03:37;;;;;;;11.10;6.43;;;-1.90;99.90;;;;;;7239631;32;20138;-79
2021/12/21 19:07:39;;;;;;;14.30;6.10;;;-2.00;99.90;;;;;;7252363;32;20191;-79
2021/12/21 19:11:41;;;;;;;17.37;6.72;;;-2.00;99.90;;;;;;7256640;32;20481;-80
2021/12/21 19:15:43;;;;;;;12.70;7.18;;;-2.00;99.90;;;;;;7257824;32;20317;-79
2021/12/21 19:19:45;;;;;;;15.65;6.75;;;-2.00;99.90;;;;;;7236379;32;20190;-80
2021/12/21 19:23:46;;;;;;;13.23;7.53;;;-2.10;99.90;;;;;;7230161;32;20676;-80
2021/12/21 19:27:48;;;;;;;15.40;7.30;;;-2.10;99.90;;;;;;7244534;32;20191;-79
2021/12/21 19:31:50;;;;;;;15.25;7.53;;;-2.20;99.90;;;;;;7244532;32;20130;-79
2021/12/21 19:35:52;;;;;;;15.88;8.45;;;-2.20;99.90;;;;;;7227363;32;20131;-79
2021/12/21 19:39:54;;;;;;;14.98;7.70;;;-2.20;99.90;;;;;;7241032;32;20203;-79
2021/12/21 19:43:56;;;;;;;11.48;6.68;;;-2.20;99.90;;;;;;7239956;32;20168;-79
2021/12/21 19:47:58;;;;;;;14.55;6.65;;;-2.30;99.90;;;;;;7241034;32;20173;-80
2021/12/21 19:52:00;;;;;;;14.73;7.65;;;-2.30;99.90;;;;;;7250546;32;20269;-78
2021/12/21 19:56:02;;;;;;;12.02;7.07;;;-2.30;99.90;;;;;;7259603;32;20113;-80
2021/12/21 20:00:07;;;;;;;11.73;7.28;;;-2.40;99.90;;;;;;7259639;32;20225;-78
2021/12/21 20:04:09;;;;;;;12.02;6.70;;;-2.40;99.90;;;;;;7266562;32;20107;-77
2021/12/21 20:08:13;;;;;;;13.90;8.00;;;-2.40;99.90;;;;;;7253796;32;20211;-77
2021/12/21 20:12:24;;;;;;;14.98;7.65;;;-2.50;99.90;;;;;;7254761;32;20229;-78
2021/12/21 20:16:26;;;;;;;13.93;7.60;;;-2.50;99.90;;;;;;7260593;32;20265;-78
2021/12/21 20:20:30;;;;;;;15.48;7.78;;;-2.50;99.90;;;;;;7252533;32;20586;-78
2021/12/21 20:24:35;;;;;;;14.77;9.07;;;-2.50;99.90;;;;;;7261160;32;20113;-78
2021/12/21 20:28:37;;;;;;;22.77;11.32;;;-2.50;99.90;;;;;;7262447;32;20112;-78
2021/12/21 20:32:41;;;;;;;22.75;12.80;;;-2.60;99.90;;;;;;7257475;32;20186;-75
2021/12/21 20:36:43;;;;;;;26.65;13.32;;;-2.50;99.90;;;;;;7248294;32;20219;-76
2021/12/21 20:40:46;;;;;;;19.80;11.68;;;-2.60;99.90;;;;;;7263280;32;20689;-75
2021/12/21 20:44:47;;;;;;;26.42;15.55;;;-2.60;99.90;;;;;;7256969;32;20211;-76
2021/12/21 20:48:50;;;;;;;28.42;14.98;;;-2.60;99.90;;;;;;7276458;32;20576;-76
2021/12/21 20:52:53;;;;;;;36.45;17.33;;;-2.70;99.90;;;;;;7276204;32;20166;-76
2021/12/21 20:56:56;;;;;;;32.40;18.05;;;-2.70;99.90;;;;;;7262794;32;20243;-76
2021/12/21 21:00:58;;;;;;;26.90;16.40;;;-2.70;99.90;;;;;;7276524;32;20112;-75
2021/12/21 21:04:59;;;;;;;35.70;17.90;;;-2.70;99.90;;;;;;7281537;32;20100;-75
2021/12/21 21:09:02;;;;;;;38.67;17.55;;;-2.70;99.90;;;;;;7266033;32;20166;-75
2021/12/21 21:13:05;;;;;;;35.90;19.42;;;-2.70;99.90;;;;;;7275572;32;20188;-75
2021/12/21 21:17:07;;;;;;;26.60;13.90;;;-2.80;99.90;;;;;;7279093;32;20184;-76
2021/12/21 21:21:09;;;;;;;16.95;10.38;;;-2.90;99.90;;;;;;7281274;32;20152;-75
2021/12/21 21:25:13;;;;;;;18.52;9.15;;;-2.90;99.90;;;;;;7271496;32;20057;-74
2021/12/21 21:29:15;;;;;;;14.38;7.80;;;-2.90;99.90;;;;;;7261616;32;20219;-76
2021/12/21 21:33:17;;;;;;;14.73;7.30;;;-2.80;99.90;;;;;;7232756;32;20592;-75
2021/12/21 21:37:19;;;;;;;15.45;7.60;;;-2.90;99.90;;;;;;7250799;32;20105;-76
2021/12/21 21:41:21;;;;;;;11.77;6.80;;;-2.90;99.90;;;;;;7252966;32;20530;-76
2021/12/21 21:45:22;;;;;;;13.00;7.12;;;-2.90;99.90;;;;;;7251210;32;20127;-75
2021/12/21 21:49:24;;;;;;;13.93;7.30;;;-3.00;99.90;;;;;;7238178;32;20292;-76
2021/12/21 21:57:37;;;;;;;12.50;6.93;;;-3.00;99.90;;;;;;7255213;32;20126;-76
2021/12/21 22:01:41;;;;;;;14.35;7.25;;;-3.10;99.90;;;;;;7251737;32;20426;-75
2021/12/21 22:05:43;;;;;;;11.95;6.40;;;-3.10;99.90;;;;;;7243798;32;20172;-76
2021/12/21 22:09:44;;;;;;;9.57;6.05;;;-3.10;99.90;;;;;;7228129;32;20282;-76
2021/12/21 22:13:47;;;;;;;11.98;6.32;;;-3.10;99.90;;;;;;7228243;32;20187;-76
2021/12/21 22:17:49;;;;;;;12.13;6.30;;;-3.20;99.90;;;;;;7238488;32;20364;-78